sensor_id;sensor_type;location;lat;lon;timestamp;temperature;humidity
3944;DHT22;1986;52.546;13.428;2023-05-23T00:01:40;18.80;67.60
3944;DHT22;1986;52.546;13.428;2023-05-23T00:04:09;18.70;68.20
3944;DHT22;1986;52.546;13.428;2023-05-23T00:06:41;18.70;68.50
3944;DHT22;1986;52.546;13.428;2023-05-23T00:09:09;18.60;69.20
3944;DHT22;1986;52.546;13.428;2023-05-23T00:11:36;18.60;69.40
3944;DHT22;1986;52.546;13.428;2023-05-23T00:14:03;18.60;69.70
3944;DHT22;1986;52.546;13.428;2023-05-23T00:16:32;18.60;69.80
3944;DHT22;1986;52.546;13.428;2023-05-23T00:18:59;18.70;69.60
3944;DHT22;1986;52.546;13.428;2023-05-23T00:21:28;18.70;69.60
3944;DHT22;1986;52.546;13.428;2023-05-23T00:23:57;18.70;69.90
3944;DHT22;1986;52.546;13.428;2023-05-23T00:26:24;18.60;70.10
3944;DHT22;1986;52.546;13.428;2023-05-23T00:28:54;18.70;70.40
3944;DHT22;1986;52.546;13.428;2023-05-23T00:31:21;18.60;70.40
3944;DHT22;1986;52.546;13.428;2023-05-23T00:33:48;18.60;70.20
3944;DHT22;1986;52.546;13.428;2023-05-23T00:36:15;18.60;70.40
3944;DHT22;1986;52.546;13.428;2023-05-23T00:38:44;18.60;70.80
3944;DHT22;1986;52.546;13.428;2023-05-23T00:41:11;18.50;71.20
3944;DHT22;1986;52.546;13.428;2023-05-23T00:43:38;18.50;71.50
3944;DHT22;1986;52.546;13.428;2023-05-23T00:46:08;18.40;71.80
3944;DHT22;1986;52.546;13.428;2023-05-23T00:48:36;18.40;72.20
3944;DHT22;1986;52.546;13.428;2023-05-23T00:51:04;18.40;73.50
3944;DHT22;1986;52.546;13.428;2023-05-23T00:53:32;18.30;73.20
3944;DHT22;1986;52.546;13.428;2023-05-23T00:56:01;18.20;73.50
3944;DHT22;1986;52.546;13.428;2023-05-23T00:58:29;18.10;74.20
3944;DHT22;1986;52.546;13.428;2023-05-23T01:00:56;18.10;74.50
3944;DHT22;1986;52.546;13.428;2023-05-23T01:03:24;18.10;75.00
3944;DHT22;1986;52.546;13.428;2023-05-23T01:05:54;18.00;75.50
3944;DHT22;1986;52.546;13.428;2023-05-23T01:08:21;18.00;76.00
3944;DHT22;1986;52.546;13.428;2023-05-23T01:10:48;18.00;76.40
3944;DHT22;1986;52.546;13.428;2023-05-23T01:13:25;17.90;77.00
3944;DHT22;1986;52.546;13.428;2023-05-23T01:16:01;17.90;77.60
3944;DHT22;1986;52.546;13.428;2023-05-23T01:18:35;17.90;78.30
3944;DHT22;1986;52.546;13.428;2023-05-23T01:21:05;17.80;78.80
3944;DHT22;1986;52.546;13.428;2023-05-23T01:24:01;17.80;79.30
3944;DHT22;1986;52.546;13.428;2023-05-23T01:26:40;17.80;80.00
3944;DHT22;1986;52.546;13.428;2023-05-23T01:29:18;17.80;80.50
3944;DHT22;1986;52.546;13.428;2023-05-23T01:31:51;17.70;80.90
3944;DHT22;1986;52.546;13.428;2023-05-23T01:34:18;17.70;81.50
3944;DHT22;1986;52.546;13.428;2023-05-23T01:36:49;17.70;81.90
3944;DHT22;1986;52.546;13.428;2023-05-23T01:39:17;17.70;82.60
3944;DHT22;1986;52.546;13.428;2023-05-23T01:41:45;17.70;82.70
3944;DHT22;1986;52.546;13.428;2023-05-23T01:44:14;17.70;83.10
3944;DHT22;1986;52.546;13.428;2023-05-23T01:46:43;17.70;83.40
3944;DHT22;1986;52.546;13.428;2023-05-23T01:49:11;17.70;84.10
3944;DHT22;1986;52.546;13.428;2023-05-23T01:51:39;17.80;83.70
3944;DHT22;1986;52.546;13.428;2023-05-23T01:54:06;17.70;84.20
3944;DHT22;1986;52.546;13.428;2023-05-23T01:56:34;17.70;84.60
3944;DHT22;1986;52.546;13.428;2023-05-23T01:59:01;17.70;84.50
3944;DHT22;1986;52.546;13.428;2023-05-23T02:01:30;17.70;84.90
3944;DHT22;1986;52.546;13.428;2023-05-23T02:03:57;17.70;85.00
3944;DHT22;1986;52.546;13.428;2023-05-23T02:06:24;17.70;85.30
3944;DHT22;1986;52.546;13.428;2023-05-23T02:08:52;17.70;85.50
3944;DHT22;1986;52.546;13.428;2023-05-23T02:11:19;17.70;85.70
3944;DHT22;1986;52.546;13.428;2023-05-23T02:13:47;17.70;86.00
3944;DHT22;1986;52.546;13.428;2023-05-23T02:16:14;17.70;86.50
3944;DHT22;1986;52.546;13.428;2023-05-23T02:18:42;17.70;86.50
3944;DHT22;1986;52.546;13.428;2023-05-23T02:21:10;17.60;87.10
3944;DHT22;1986;52.546;13.428;2023-05-23T02:23:37;17.70;87.60
3944;DHT22;1986;52.546;13.428;2023-05-23T02:26:04;17.60;87.80
3944;DHT22;1986;52.546;13.428;2023-05-23T02:28:31;17.60;88.00
3944;DHT22;1986;52.546;13.428;2023-05-23T02:30:58;17.50;88.40
3944;DHT22;1986;52.546;13.428;2023-05-23T02:33:25;17.50;88.90
3944;DHT22;1986;52.546;13.428;2023-05-23T02:35:53;17.50;89.80
3944;DHT22;1986;52.546;13.428;2023-05-23T02:38:20;17.50;90.10
3944;DHT22;1986;52.546;13.428;2023-05-23T02:40:47;17.50;90.20
3944;DHT22;1986;52.546;13.428;2023-05-23T02:43:15;17.50;90.40
3944;DHT22;1986;52.546;13.428;2023-05-23T02:45:41;17.50;90.60
3944;DHT22;1986;52.546;13.428;2023-05-23T02:48:08;17.40;90.90
3944;DHT22;1986;52.546;13.428;2023-05-23T02:50:36;17.50;91.00
3944;DHT22;1986;52.546;13.428;2023-05-23T02:53:04;17.50;91.30
3944;DHT22;1986;52.546;13.428;2023-05-23T02:55:31;17.50;90.80
3944;DHT22;1986;52.546;13.428;2023-05-23T02:57:58;17.50;91.00
3944;DHT22;1986;52.546;13.428;2023-05-23T03:00:26;17.40;91.00
3944;DHT22;1986;52.546;13.428;2023-05-23T03:02:53;17.40;91.30
3944;DHT22;1986;52.546;13.428;2023-05-23T03:05:20;17.40;91.50
3944;DHT22;1986;52.546;13.428;2023-05-23T03:07:46;17.40;91.70
3944;DHT22;1986;52.546;13.428;2023-05-23T03:10:15;17.40;91.80
3944;DHT22;1986;52.546;13.428;2023-05-23T03:12:42;17.40;92.00
3944;DHT22;1986;52.546;13.428;2023-05-23T03:15:09;17.40;92.20
3944;DHT22;1986;52.546;13.428;2023-05-23T03:17:36;17.40;92.60
3944;DHT22;1986;52.546;13.428;2023-05-23T03:20:04;17.40;92.40
3944;DHT22;1986;52.546;13.428;2023-05-23T03:22:34;17.40;92.80
3944;DHT22;1986;52.546;13.428;2023-05-23T03:25:01;17.30;93.00
3944;DHT22;1986;52.546;13.428;2023-05-23T03:27:30;17.20;93.70
3944;DHT22;1986;52.546;13.428;2023-05-23T03:29:57;17.20;93.80
3944;DHT22;1986;52.546;13.428;2023-05-23T03:32:24;17.20;93.70
3944;DHT22;1986;52.546;13.428;2023-05-23T03:34:51;17.20;93.60
3944;DHT22;1986;52.546;13.428;2023-05-23T03:37:19;17.20;94.00
3944;DHT22;1986;52.546;13.428;2023-05-23T03:39:46;17.20;94.20
3944;DHT22;1986;52.546;13.428;2023-05-23T03:42:13;17.20;94.10
3944;DHT22;1986;52.546;13.428;2023-05-23T03:44:41;17.20;94.40
3944;DHT22;1986;52.546;13.428;2023-05-23T03:47:08;17.10;94.60
3944;DHT22;1986;52.546;13.428;2023-05-23T03:49:35;17.10;94.80
3944;DHT22;1986;52.546;13.428;2023-05-23T03:52:02;17.10;95.00
3944;DHT22;1986;52.546;13.428;2023-05-23T03:54:29;17.10;95.60
3944;DHT22;1986;52.546;13.428;2023-05-23T03:56:56;17.10;95.10
3944;DHT22;1986;52.546;13.428;2023-05-23T03:59:23;17.10;95.20
3944;DHT22;1986;52.546;13.428;2023-05-23T04:01:51;17.10;95.40
3944;DHT22;1986;52.546;13.428;2023-05-23T04:04:18;17.10;95.70
3944;DHT22;1986;52.546;13.428;2023-05-23T04:06:45;17.10;95.70
3944;DHT22;1986;52.546;13.428;2023-05-23T04:09:13;17.10;95.50
3944;DHT22;1986;52.546;13.428;2023-05-23T04:11:40;17.10;95.40
3944;DHT22;1986;52.546;13.428;2023-05-23T04:14:07;17.20;95.70
3944;DHT22;1986;52.546;13.428;2023-05-23T04:16:35;17.10;96.30
3944;DHT22;1986;52.546;13.428;2023-05-23T04:19:07;17.00;97.70
3944;DHT22;1986;52.546;13.428;2023-05-23T04:21:34;16.80;99.00
3944;DHT22;1986;52.546;13.428;2023-05-23T04:24:01;16.70;99.70
3944;DHT22;1986;52.546;13.428;2023-05-23T04:26:28;16.70;99.90
3944;DHT22;1986;52.546;13.428;2023-05-23T04:28:55;16.60;99.90
3944;DHT22;1986;52.546;13.428;2023-05-23T04:31:23;16.60;99.90
3944;DHT22;1986;52.546;13.428;2023-05-23T04:33:50;16.50;99.90
3944;DHT22;1986;52.546;13.428;2023-05-23T04:36:22;16.50;99.90
3944;DHT22;1986;52.546;13.428;2023-05-23T04:38:50;16.60;99.90
3944;DHT22;1986;52.546;13.428;2023-05-23T04:41:18;16.50;99.90
3944;DHT22;1986;52.546;13.428;2023-05-23T04:43:47;16.70;99.90
3944;DHT22;1986;52.546;13.428;2023-05-23T04:46:19;16.70;99.90
3944;DHT22;1986;52.546;13.428;2023-05-23T04:48:52;16.80;99.90
3944;DHT22;1986;52.546;13.428;2023-05-23T04:51:20;16.80;99.90
3944;DHT22;1986;52.546;13.428;2023-05-23T04:53:48;16.90;99.90
3944;DHT22;1986;52.546;13.428;2023-05-23T04:56:15;16.90;99.90
3944;DHT22;1986;52.546;13.428;2023-05-23T04:58:46;16.90;99.90
3944;DHT22;1986;52.546;13.428;2023-05-23T05:01:14;16.90;99.90
3944;DHT22;1986;52.546;13.428;2023-05-23T05:03:44;16.90;99.90
3944;DHT22;1986;52.546;13.428;2023-05-23T05:06:12;16.90;99.90
3944;DHT22;1986;52.546;13.428;2023-05-23T05:08:41;17.00;99.90
3944;DHT22;1986;52.546;13.428;2023-05-23T05:11:08;16.90;99.90
3944;DHT22;1986;52.546;13.428;2023-05-23T05:13:36;16.70;99.90
3944;DHT22;1986;52.546;13.428;2023-05-23T05:16:03;16.70;99.90
3944;DHT22;1986;52.546;13.428;2023-05-23T05:18:30;16.70;99.90
3944;DHT22;1986;52.546;13.428;2023-05-23T05:20:57;16.80;99.90
3944;DHT22;1986;52.546;13.428;2023-05-23T05:23:25;16.90;99.90
3944;DHT22;1986;52.546;13.428;2023-05-23T05:25:55;17.00;99.90
3944;DHT22;1986;52.546;13.428;2023-05-23T05:28:22;17.10;99.90
3944;DHT22;1986;52.546;13.428;2023-05-23T05:30:49;17.00;99.90
3944;DHT22;1986;52.546;13.428;2023-05-23T05:33:19;17.10;99.90
3944;DHT22;1986;52.546;13.428;2023-05-23T05:35:47;17.00;99.90
3944;DHT22;1986;52.546;13.428;2023-05-23T05:38:16;17.10;99.90
3944;DHT22;1986;52.546;13.428;2023-05-23T05:40:43;17.30;99.90
3944;DHT22;1986;52.546;13.428;2023-05-23T05:43:13;17.40;99.90
3944;DHT22;1986;52.546;13.428;2023-05-23T05:45:40;17.40;99.90
3944;DHT22;1986;52.546;13.428;2023-05-23T05:48:07;17.40;99.90
3944;DHT22;1986;52.546;13.428;2023-05-23T05:50:34;17.40;99.90
3944;DHT22;1986;52.546;13.428;2023-05-23T05:53:01;17.50;99.90
3944;DHT22;1986;52.546;13.428;2023-05-23T05:55:28;17.50;99.90
3944;DHT22;1986;52.546;13.428;2023-05-23T05:57:56;17.50;99.90
3944;DHT22;1986;52.546;13.428;2023-05-23T06:00:25;17.40;99.90
3944;DHT22;1986;52.546;13.428;2023-05-23T06:02:53;17.50;99.90
3944;DHT22;1986;52.546;13.428;2023-05-23T06:05:22;17.30;99.90
3944;DHT22;1986;52.546;13.428;2023-05-23T06:07:49;16.80;99.90
3944;DHT22;1986;52.546;13.428;2023-05-23T06:10:16;16.80;99.90
3944;DHT22;1986;52.546;13.428;2023-05-23T06:12:50;16.70;99.90
3944;DHT22;1986;52.546;13.428;2023-05-23T06:15:18;16.90;99.90
3944;DHT22;1986;52.546;13.428;2023-05-23T06:17:46;16.90;99.90
3944;DHT22;1986;52.546;13.428;2023-05-23T06:20:13;16.80;99.90
3944;DHT22;1986;52.546;13.428;2023-05-23T06:22:40;16.80;99.90
3944;DHT22;1986;52.546;13.428;2023-05-23T06:25:08;16.80;99.90
3944;DHT22;1986;52.546;13.428;2023-05-23T06:27:35;16.80;99.90
3944;DHT22;1986;52.546;13.428;2023-05-23T06:30:03;16.70;99.90
3944;DHT22;1986;52.546;13.428;2023-05-23T06:32:45;16.70;99.90
3944;DHT22;1986;52.546;13.428;2023-05-23T06:35:12;16.80;99.90
3944;DHT22;1986;52.546;13.428;2023-05-23T06:37:39;16.80;99.90
3944;DHT22;1986;52.546;13.428;2023-05-23T06:40:10;16.80;99.90
3944;DHT22;1986;52.546;13.428;2023-05-23T06:42:37;16.90;99.90
3944;DHT22;1986;52.546;13.428;2023-05-23T06:45:05;16.90;99.90
3944;DHT22;1986;52.546;13.428;2023-05-23T06:47:32;16.70;99.90
3944;DHT22;1986;52.546;13.428;2023-05-23T06:50:01;16.80;99.90
3944;DHT22;1986;52.546;13.428;2023-05-23T06:52:27;16.90;99.90
3944;DHT22;1986;52.546;13.428;2023-05-23T06:54:54;17.10;99.90
3944;DHT22;1986;52.546;13.428;2023-05-23T06:57:21;17.30;99.90
3944;DHT22;1986;52.546;13.428;2023-05-23T06:59:48;17.40;99.90
3944;DHT22;1986;52.546;13.428;2023-05-23T07:02:15;17.70;99.90
3944;DHT22;1986;52.546;13.428;2023-05-23T07:04:42;18.00;99.90
3944;DHT22;1986;52.546;13.428;2023-05-23T07:07:13;18.30;99.90
3944;DHT22;1986;52.546;13.428;2023-05-23T07:09:40;18.50;99.90
3944;DHT22;1986;52.546;13.428;2023-05-23T07:12:07;18.70;99.90
3944;DHT22;1986;52.546;13.428;2023-05-23T07:14:34;19.10;99.90
3944;DHT22;1986;52.546;13.428;2023-05-23T07:17:02;19.30;99.90
3944;DHT22;1986;52.546;13.428;2023-05-23T07:19:30;19.20;99.90
3944;DHT22;1986;52.546;13.428;2023-05-23T07:21:57;19.10;99.90
3944;DHT22;1986;52.546;13.428;2023-05-23T07:24:25;19.30;99.90
3944;DHT22;1986;52.546;13.428;2023-05-23T07:26:52;19.60;99.90
3944;DHT22;1986;52.546;13.428;2023-05-23T07:29:20;19.80;99.80
3944;DHT22;1986;52.546;13.428;2023-05-23T07:31:47;20.00;98.10
3944;DHT22;1986;52.546;13.428;2023-05-23T07:34:19;19.80;98.20
3944;DHT22;1986;52.546;13.428;2023-05-23T07:37:04;19.80;98.40
3944;DHT22;1986;52.546;13.428;2023-05-23T07:39:35;20.00;97.90
3944;DHT22;1986;52.546;13.428;2023-05-23T07:42:02;20.40;97.60
3944;DHT22;1986;52.546;13.428;2023-05-23T07:44:32;20.90;96.90
3944;DHT22;1986;52.546;13.428;2023-05-23T07:46:58;21.10;95.50
3944;DHT22;1986;52.546;13.428;2023-05-23T07:49:26;20.80;94.50
3944;DHT22;1986;52.546;13.428;2023-05-23T07:51:53;20.70;94.10
3944;DHT22;1986;52.546;13.428;2023-05-23T07:54:20;20.40;94.50
3944;DHT22;1986;52.546;13.428;2023-05-23T07:56:51;20.30;94.90
3944;DHT22;1986;52.546;13.428;2023-05-23T07:59:18;20.20;95.40
3944;DHT22;1986;52.546;13.428;2023-05-23T08:01:47;20.00;94.90
3944;DHT22;1986;52.546;13.428;2023-05-23T08:04:18;19.80;95.50
3944;DHT22;1986;52.546;13.428;2023-05-23T08:06:45;20.00;95.90
3944;DHT22;1986;52.546;13.428;2023-05-23T08:09:13;20.10;95.90
3944;DHT22;1986;52.546;13.428;2023-05-23T08:11:43;20.10;96.00
3944;DHT22;1986;52.546;13.428;2023-05-23T08:14:14;20.00;96.30
3944;DHT22;1986;52.546;13.428;2023-05-23T08:16:44;20.00;96.40
3944;DHT22;1986;52.546;13.428;2023-05-23T08:19:15;20.00;96.50
3944;DHT22;1986;52.546;13.428;2023-05-23T08:21:45;20.10;96.80
3944;DHT22;1986;52.546;13.428;2023-05-23T08:24:15;20.30;96.50
3944;DHT22;1986;52.546;13.428;2023-05-23T08:26:55;20.60;97.10
3944;DHT22;1986;52.546;13.428;2023-05-23T08:29:24;21.70;95.20
3944;DHT22;1986;52.546;13.428;2023-05-23T08:31:51;22.40;93.50
3944;DHT22;1986;52.546;13.428;2023-05-23T08:34:18;22.20;93.00
3944;DHT22;1986;52.546;13.428;2023-05-23T08:36:48;22.70;92.40
3944;DHT22;1986;52.546;13.428;2023-05-23T08:39:15;21.70;92.80
3944;DHT22;1986;52.546;13.428;2023-05-23T08:41:42;21.10;94.50
3944;DHT22;1986;52.546;13.428;2023-05-23T08:44:10;20.90;95.50
3944;DHT22;1986;52.546;13.428;2023-05-23T08:46:42;20.90;96.10
3944;DHT22;1986;52.546;13.428;2023-05-23T08:49:10;21.40;96.50
3944;DHT22;1986;52.546;13.428;2023-05-23T08:51:42;21.40;95.70
3944;DHT22;1986;52.546;13.428;2023-05-23T08:54:10;21.70;95.60
3944;DHT22;1986;52.546;13.428;2023-05-23T08:56:38;21.60;95.40
3944;DHT22;1986;52.546;13.428;2023-05-23T08:59:06;21.70;95.90
3944;DHT22;1986;52.546;13.428;2023-05-23T09:01:35;21.80;95.90
3944;DHT22;1986;52.546;13.428;2023-05-23T09:04:05;21.80;95.50
3944;DHT22;1986;52.546;13.428;2023-05-23T09:06:34;21.40;96.80
3944;DHT22;1986;52.546;13.428;2023-05-23T09:09:04;20.80;98.20
3944;DHT22;1986;52.546;13.428;2023-05-23T09:11:35;20.90;99.50
3944;DHT22;1986;52.546;13.428;2023-05-23T09:14:04;21.00;99.90
3944;DHT22;1986;52.546;13.428;2023-05-23T09:16:34;21.30;99.60
3944;DHT22;1986;52.546;13.428;2023-05-23T09:19:11;21.00;99.90
3944;DHT22;1986;52.546;13.428;2023-05-23T09:21:42;20.90;99.90
3944;DHT22;1986;52.546;13.428;2023-05-23T09:24:10;21.00;99.90
3944;DHT22;1986;52.546;13.428;2023-05-23T09:26:38;21.20;99.90
3944;DHT22;1986;52.546;13.428;2023-05-23T09:29:05;21.30;99.90
3944;DHT22;1986;52.546;13.428;2023-05-23T09:31:34;21.40;99.90
3944;DHT22;1986;52.546;13.428;2023-05-23T09:34:04;21.20;99.90
3944;DHT22;1986;52.546;13.428;2023-05-23T09:36:34;21.20;99.90
3944;DHT22;1986;52.546;13.428;2023-05-23T09:39:02;21.60;99.90
3944;DHT22;1986;52.546;13.428;2023-05-23T09:41:32;21.50;99.90
3944;DHT22;1986;52.546;13.428;2023-05-23T09:44:04;21.40;99.90
3944;DHT22;1986;52.546;13.428;2023-05-23T09:46:35;21.40;99.90
3944;DHT22;1986;52.546;13.428;2023-05-23T09:49:17;21.40;99.90
3944;DHT22;1986;52.546;13.428;2023-05-23T09:51:59;21.30;99.90
3944;DHT22;1986;52.546;13.428;2023-05-23T09:54:26;21.40;99.90
3944;DHT22;1986;52.546;13.428;2023-05-23T09:56:54;21.20;99.90
3944;DHT22;1986;52.546;13.428;2023-05-23T09:59:22;21.40;99.90
3944;DHT22;1986;52.546;13.428;2023-05-23T10:01:51;21.60;99.90
3944;DHT22;1986;52.546;13.428;2023-05-23T10:04:22;21.40;99.90
3944;DHT22;1986;52.546;13.428;2023-05-23T10:06:55;21.30;99.90
3944;DHT22;1986;52.546;13.428;2023-05-23T10:09:27;21.30;99.90
3944;DHT22;1986;52.546;13.428;2023-05-23T10:12:32;20.90;99.90
3944;DHT22;1986;52.546;13.428;2023-05-23T10:15:03;20.80;99.90
3944;DHT22;1986;52.546;13.428;2023-05-23T10:17:40;21.00;99.90
3944;DHT22;1986;52.546;13.428;2023-05-23T10:20:11;21.40;99.90
3944;DHT22;1986;52.546;13.428;2023-05-23T10:22:41;21.70;99.90
3944;DHT22;1986;52.546;13.428;2023-05-23T10:25:12;21.90;99.90
3944;DHT22;1986;52.546;13.428;2023-05-23T10:27:39;21.70;99.90
3944;DHT22;1986;52.546;13.428;2023-05-23T10:30:08;21.40;99.90
3944;DHT22;1986;52.546;13.428;2023-05-23T10:32:37;21.20;99.90
3944;DHT22;1986;52.546;13.428;2023-05-23T10:35:12;21.40;99.90
3944;DHT22;1986;52.546;13.428;2023-05-23T10:37:47;21.40;99.90
3944;DHT22;1986;52.546;13.428;2023-05-23T10:40:23;21.70;99.90
3944;DHT22;1986;52.546;13.428;2023-05-23T10:42:59;21.20;99.90
3944;DHT22;1986;52.546;13.428;2023-05-23T10:45:28;21.30;99.90
3944;DHT22;1986;52.546;13.428;2023-05-23T10:47:55;21.00;99.90
3944;DHT22;1986;52.546;13.428;2023-05-23T10:50:33;20.90;99.90
3944;DHT22;1986;52.546;13.428;2023-05-23T10:53:02;21.00;99.90
3944;DHT22;1986;52.546;13.428;2023-05-23T10:55:35;20.90;99.90
3944;DHT22;1986;52.546;13.428;2023-05-23T10:58:11;21.10;99.90
3944;DHT22;1986;52.546;13.428;2023-05-23T11:00:38;21.20;99.90
3944;DHT22;1986;52.546;13.428;2023-05-23T11:03:05;20.90;99.90
3944;DHT22;1986;52.546;13.428;2023-05-23T11:05:33;20.90;99.90
3944;DHT22;1986;52.546;13.428;2023-05-23T11:08:07;20.60;99.90
3944;DHT22;1986;52.546;13.428;2023-05-23T11:10:54;20.60;99.90
3944;DHT22;1986;52.546;13.428;2023-05-23T11:13:21;20.20;99.90
3944;DHT22;1986;52.546;13.428;2023-05-23T11:15:48;20.10;99.90
3944;DHT22;1986;52.546;13.428;2023-05-23T11:18:25;20.20;99.90
3944;DHT22;1986;52.546;13.428;2023-05-23T11:20:52;20.10;99.90
3944;DHT22;1986;52.546;13.428;2023-05-23T11:23:20;20.20;99.90
3944;DHT22;1986;52.546;13.428;2023-05-23T11:25:49;20.40;99.90
3944;DHT22;1986;52.546;13.428;2023-05-23T11:28:19;20.30;99.90
3944;DHT22;1986;52.546;13.428;2023-05-23T11:30:49;20.00;99.90
3944;DHT22;1986;52.546;13.428;2023-05-23T11:33:16;19.90;99.90
3944;DHT22;1986;52.546;13.428;2023-05-23T11:35:46;20.00;99.90
3944;DHT22;1986;52.546;13.428;2023-05-23T11:38:15;20.30;99.90
3944;DHT22;1986;52.546;13.428;2023-05-23T11:40:43;20.40;99.90
3944;DHT22;1986;52.546;13.428;2023-05-23T11:43:13;19.90;99.90
3944;DHT22;1986;52.546;13.428;2023-05-23T11:45:42;19.90;99.90
3944;DHT22;1986;52.546;13.428;2023-05-23T11:48:12;20.00;99.90
3944;DHT22;1986;52.546;13.428;2023-05-23T11:50:44;20.20;99.90
3944;DHT22;1986;52.546;13.428;2023-05-23T11:53:11;20.10;99.90
3944;DHT22;1986;52.546;13.428;2023-05-23T11:55:48;20.30;99.90
3944;DHT22;1986;52.546;13.428;2023-05-23T11:58:15;20.20;99.90
3944;DHT22;1986;52.546;13.428;2023-05-23T12:00:45;20.30;99.90
3944;DHT22;1986;52.546;13.428;2023-05-23T12:03:12;20.20;99.90
3944;DHT22;1986;52.546;13.428;2023-05-23T12:05:42;19.90;99.90
3944;DHT22;1986;52.546;13.428;2023-05-23T12:08:11;19.90;99.90
3944;DHT22;1986;52.546;13.428;2023-05-23T12:10:49;19.80;99.90
3944;DHT22;1986;52.546;13.428;2023-05-23T12:13:17;19.70;99.90
3944;DHT22;1986;52.546;13.428;2023-05-23T12:15:45;20.00;99.90
3944;DHT22;1986;52.546;13.428;2023-05-23T12:18:12;20.30;99.90
3944;DHT22;1986;52.546;13.428;2023-05-23T12:20:40;20.60;99.90
3944;DHT22;1986;52.546;13.428;2023-05-23T12:23:07;20.70;99.90
3944;DHT22;1986;52.546;13.428;2023-05-23T12:25:39;20.70;99.90
3944;DHT22;1986;52.546;13.428;2023-05-23T12:28:07;20.40;99.90
3944;DHT22;1986;52.546;13.428;2023-05-23T12:30:40;20.40;99.90
3944;DHT22;1986;52.546;13.428;2023-05-23T12:33:09;20.30;99.90
3944;DHT22;1986;52.546;13.428;2023-05-23T12:35:42;20.00;99.90
3944;DHT22;1986;52.546;13.428;2023-05-23T12:38:13;19.80;99.90
3944;DHT22;1986;52.546;13.428;2023-05-23T12:40:41;19.60;99.90
3944;DHT22;1986;52.546;13.428;2023-05-23T12:43:08;19.80;99.90
3944;DHT22;1986;52.546;13.428;2023-05-23T12:45:36;19.50;99.90
3944;DHT22;1986;52.546;13.428;2023-05-23T12:48:03;19.30;99.90
3944;DHT22;1986;52.546;13.428;2023-05-23T12:50:33;19.10;99.90
3944;DHT22;1986;52.546;13.428;2023-05-23T12:53:00;19.20;99.90
3944;DHT22;1986;52.546;13.428;2023-05-23T12:55:27;18.90;99.90
3944;DHT22;1986;52.546;13.428;2023-05-23T12:57:53;19.10;99.90
3944;DHT22;1986;52.546;13.428;2023-05-23T13:00:21;19.10;99.90
3944;DHT22;1986;52.546;13.428;2023-05-23T13:02:48;19.10;99.90
3944;DHT22;1986;52.546;13.428;2023-05-23T13:05:15;19.30;99.90
3944;DHT22;1986;52.546;13.428;2023-05-23T13:07:43;19.30;99.90
3944;DHT22;1986;52.546;13.428;2023-05-23T13:10:10;19.00;99.90
3944;DHT22;1986;52.546;13.428;2023-05-23T13:12:38;18.90;99.90
3944;DHT22;1986;52.546;13.428;2023-05-23T13:15:06;18.80;99.90
3944;DHT22;1986;52.546;13.428;2023-05-23T13:17:33;18.70;99.90
3944;DHT22;1986;52.546;13.428;2023-05-23T13:20:00;18.70;99.90
3944;DHT22;1986;52.546;13.428;2023-05-23T13:22:29;18.60;99.90
3944;DHT22;1986;52.546;13.428;2023-05-23T13:24:57;18.60;99.90
3944;DHT22;1986;52.546;13.428;2023-05-23T13:27:24;18.70;99.90
3944;DHT22;1986;52.546;13.428;2023-05-23T13:29:51;18.40;99.90
3944;DHT22;1986;52.546;13.428;2023-05-23T13:32:18;18.40;99.90
3944;DHT22;1986;52.546;13.428;2023-05-23T13:34:45;18.40;99.90
3944;DHT22;1986;52.546;13.428;2023-05-23T13:37:13;18.30;99.90
3944;DHT22;1986;52.546;13.428;2023-05-23T13:39:40;18.40;99.90
3944;DHT22;1986;52.546;13.428;2023-05-23T13:42:13;18.10;99.90
3944;DHT22;1986;52.546;13.428;2023-05-23T13:44:40;18.20;99.90
3944;DHT22;1986;52.546;13.428;2023-05-23T13:47:11;18.10;99.90
3944;DHT22;1986;52.546;13.428;2023-05-23T13:49:39;18.10;99.90
3944;DHT22;1986;52.546;13.428;2023-05-23T13:52:06;17.90;99.90
3944;DHT22;1986;52.546;13.428;2023-05-23T13:54:33;17.80;99.90
3944;DHT22;1986;52.546;13.428;2023-05-23T13:57:00;17.80;99.90
3944;DHT22;1986;52.546;13.428;2023-05-23T13:59:29;17.90;99.90
3944;DHT22;1986;52.546;13.428;2023-05-23T14:01:56;17.80;99.90
3944;DHT22;1986;52.546;13.428;2023-05-23T14:04:23;17.80;99.90
3944;DHT22;1986;52.546;13.428;2023-05-23T14:06:50;17.70;99.90
3944;DHT22;1986;52.546;13.428;2023-05-23T14:09:17;17.70;99.90
3944;DHT22;1986;52.546;13.428;2023-05-23T14:11:44;17.80;99.90
3944;DHT22;1986;52.546;13.428;2023-05-23T14:14:11;17.70;99.90
3944;DHT22;1986;52.546;13.428;2023-05-23T14:16:40;17.60;99.90
3944;DHT22;1986;52.546;13.428;2023-05-23T14:19:07;17.50;99.90
3944;DHT22;1986;52.546;13.428;2023-05-23T14:21:34;17.60;99.90
3944;DHT22;1986;52.546;13.428;2023-05-23T14:24:01;17.40;99.90
3944;DHT22;1986;52.546;13.428;2023-05-23T14:26:28;17.40;99.90
3944;DHT22;1986;52.546;13.428;2023-05-23T14:28:55;17.40;99.90
3944;DHT22;1986;52.546;13.428;2023-05-23T14:31:22;17.40;99.90
3944;DHT22;1986;52.546;13.428;2023-05-23T14:33:50;17.40;99.90
3944;DHT22;1986;52.546;13.428;2023-05-23T14:36:17;17.30;99.90
3944;DHT22;1986;52.546;13.428;2023-05-23T14:38:44;17.40;99.90
3944;DHT22;1986;52.546;13.428;2023-05-23T14:41:12;17.40;99.90
3944;DHT22;1986;52.546;13.428;2023-05-23T14:43:39;17.30;99.90
3944;DHT22;1986;52.546;13.428;2023-05-23T14:46:06;17.40;99.90
3944;DHT22;1986;52.546;13.428;2023-05-23T14:48:33;17.40;99.90
3944;DHT22;1986;52.546;13.428;2023-05-23T14:51:02;17.50;99.90
3944;DHT22;1986;52.546;13.428;2023-05-23T14:53:30;17.50;99.90
3944;DHT22;1986;52.546;13.428;2023-05-23T14:55:57;17.50;99.90
3944;DHT22;1986;52.546;13.428;2023-05-23T14:58:24;17.40;99.90
3944;DHT22;1986;52.546;13.428;2023-05-23T15:00:51;17.40;99.90
3944;DHT22;1986;52.546;13.428;2023-05-23T15:03:18;17.40;99.90
3944;DHT22;1986;52.546;13.428;2023-05-23T15:05:45;17.40;99.90
3944;DHT22;1986;52.546;13.428;2023-05-23T15:08:14;17.40;99.90
3944;DHT22;1986;52.546;13.428;2023-05-23T15:10:41;17.40;99.90
3944;DHT22;1986;52.546;13.428;2023-05-23T15:13:09;17.10;99.90
3944;DHT22;1986;52.546;13.428;2023-05-23T15:15:36;16.70;99.90
3944;DHT22;1986;52.546;13.428;2023-05-23T15:18:05;16.60;99.90
3944;DHT22;1986;52.546;13.428;2023-05-23T15:20:34;16.60;99.90
3944;DHT22;1986;52.546;13.428;2023-05-23T15:23:02;16.40;99.90
3944;DHT22;1986;52.546;13.428;2023-05-23T15:25:31;16.30;99.90
3944;DHT22;1986;52.546;13.428;2023-05-23T15:27:58;16.10;99.90
3944;DHT22;1986;52.546;13.428;2023-05-23T15:30:24;16.10;99.90
3944;DHT22;1986;52.546;13.428;2023-05-23T15:32:51;16.00;99.90
3944;DHT22;1986;52.546;13.428;2023-05-23T15:35:19;15.90;99.90
3944;DHT22;1986;52.546;13.428;2023-05-23T15:37:45;15.90;99.90
3944;DHT22;1986;52.546;13.428;2023-05-23T15:40:12;15.90;99.90
3944;DHT22;1986;52.546;13.428;2023-05-23T15:42:41;15.90;99.90
3944;DHT22;1986;52.546;13.428;2023-05-23T15:45:08;15.80;99.90
3944;DHT22;1986;52.546;13.428;2023-05-23T15:47:39;15.90;99.90
3944;DHT22;1986;52.546;13.428;2023-05-23T15:50:09;15.90;99.90
3944;DHT22;1986;52.546;13.428;2023-05-23T15:52:36;15.80;99.90
3944;DHT22;1986;52.546;13.428;2023-05-23T15:55:03;15.80;99.90